Time;durP1;ratioP1;P1;durP2;ratioP2;P2;SDS_P1;SDS_P2;PMS_P1;PMS_P2;Temp;Humidity;BMP_temperature;BMP_pressure;BME280_temperature;BME280_humidity;BME280_pressure;Samples;Min_cycle;Max_cycle;Signal;HPM_P1;HPM_P2
2022/11/24 00:01:06;;;;;;;26.63;4.57;;;7.20;99.90;;;;;;5044997;28;20037;-77
2022/11/24 00:03:33;;;;;;;17.08;3.15;;;7.20;99.90;;;;;;5045436;28;20055;-79
2022/11/24 00:06:04;;;;;;;17.58;3.17;;;7.20;99.90;;;;;;5043291;28;21405;-78
2022/11/24 00:08:30;;;;;;;20.98;3.78;;;7.20;99.90;;;;;;5033763;28;20025;-79
2022/11/24 00:11:09;;;;;;;20.27;2.90;;;7.10;99.90;;;;;;5014648;28;20033;-80
2022/11/24 00:13:39;;;;;;;17.85;2.72;;;7.20;99.90;;;;;;5030578;28;20411;-77
2022/11/24 00:16:09;;;;;;;17.90;2.75;;;7.20;99.90;;;;;;5029901;28;20028;-79
2022/11/24 00:18:36;;;;;;;15.55;2.20;;;7.30;99.90;;;;;;5017953;28;20408;-79
2022/11/24 00:21:02;;;;;;;18.20;2.50;;;7.30;99.90;;;;;;5014334;28;20033;-79
2022/11/24 00:23:28;;;;;;;16.20;2.60;;;7.30;99.90;;;;;;5042985;28;20040;-77
2022/11/24 00:26:01;;;;;;;14.73;2.58;;;7.40;99.90;;;;;;5044489;28;20036;-79
2022/11/24 00:28:27;;;;;;;19.23;3.30;;;7.40;99.90;;;;;;5036032;28;20062;-79
2022/11/24 00:30:54;;;;;;;13.90;2.28;;;7.30;99.90;;;;;;5041854;28;20051;-79
2022/11/24 00:33:20;;;;;;;20.90;3.55;;;7.30;99.90;;;;;;5042026;28;20040;-78
2022/11/24 00:35:54;;;;;;;18.75;2.75;;;7.30;99.90;;;;;;5028842;28;20041;-78
2022/11/24 00:38:20;;;;;;;15.80;2.45;;;7.30;99.90;;;;;;5020442;28;20045;-79
2022/11/24 00:40:46;;;;;;;17.67;2.42;;;7.30;99.90;;;;;;5041090;28;20038;-77
2022/11/24 00:43:14;;;;;;;13.75;1.77;;;7.30;99.90;;;;;;5031058;28;20040;-79
2022/11/24 00:45:41;;;;;;;18.40;2.38;;;7.20;99.90;;;;;;5029906;28;20394;-76
2022/11/24 00:48:07;;;;;;;18.00;2.42;;;7.20;99.90;;;;;;5034351;28;20045;-80
2022/11/24 00:50:34;;;;;;;18.83;2.78;;;7.20;99.90;;;;;;5029323;28;20029;-79
2022/11/24 00:53:01;;;;;;;26.92;3.45;;;7.20;99.90;;;;;;5043260;28;20030;-76
2022/11/24 00:55:27;;;;;;;16.67;2.50;;;7.20;99.90;;;;;;5030639;28;20039;-80
2022/11/24 00:57:53;;;;;;;12.15;1.73;;;7.20;99.90;;;;;;5034979;28;20052;-78
2022/11/24 01:00:20;;;;;;;16.23;2.13;;;7.20;99.90;;;;;;5025991;28;20044;-76
2022/11/24 01:02:46;;;;;;;10.93;2.30;;;7.20;99.90;;;;;;5030940;28;20048;-79
2022/11/24 01:05:12;;;;;;;13.13;1.98;;;7.20;99.90;;;;;;5042896;28;20033;-79
2022/11/24 01:07:39;;;;;;;13.10;2.00;;;7.20;99.90;;;;;;5037467;28;20041;-77
2022/11/24 01:10:06;;;;;;;16.60;1.80;;;7.20;99.90;;;;;;5040814;28;20728;-78
2022/11/24 01:12:33;;;;;;;18.55;3.13;;;7.20;99.90;;;;;;5027419;28;20036;-75
2022/11/24 01:15:00;;;;;;;16.17;1.80;;;7.10;99.90;;;;;;5029169;28;20053;-79
2022/11/24 01:17:26;;;;;;;15.73;2.80;;;7.10;99.90;;;;;;5023548;28;20048;-75
2022/11/24 01:19:53;;;;;;;19.30;2.38;;;7.10;99.90;;;;;;5039415;28;20059;-79
2022/11/24 01:22:19;;;;;;;16.23;2.63;;;7.20;99.90;;;;;;5038342;28;20040;-78
2022/11/24 01:24:45;;;;;;;9.63;1.70;;;7.20;99.90;;;;;;5041336;28;20039;-77
2022/11/24 01:27:12;;;;;;;10.27;1.23;;;7.20;99.90;;;;;;5044179;28;20130;-77
2022/11/24 01:29:38;;;;;;;15.65;2.72;;;7.20;99.90;;;;;;5038935;28;20041;-77
2022/11/24 01:32:05;;;;;;;14.32;2.38;;;7.20;99.90;;;;;;5043773;28;20229;-79
2022/11/24 01:34:31;;;;;;;11.68;1.80;;;7.20;99.90;;;;;;5058591;28;20361;-79
2022/11/24 01:36:58;;;;;;;13.48;2.38;;;7.20;99.90;;;;;;5045399;28;20047;-78
2022/11/24 01:39:24;;;;;;;15.32;2.50;;;7.20;99.90;;;;;;5020585;28;20233;-78
2022/11/24 01:41:51;;;;;;;14.18;1.85;;;7.10;99.90;;;;;;5046701;28;20056;-79
2022/11/24 01:44:29;;;;;;;19.90;1.75;;;7.10;99.90;;;;;;5015964;28;20028;-78
2022/11/24 01:47:16;;;;;;;11.05;1.15;;;7.20;99.90;;;;;;5033694;28;20498;-80
2022/11/24 01:49:47;;;;;;;9.75;1.20;;;7.20;99.90;;;;;;5042016;28;20029;-78
2022/11/24 01:52:18;;;;;;;14.13;1.80;;;7.30;99.90;;;;;;5063397;28;20028;-79
2022/11/24 01:54:53;;;;;;;16.98;2.20;;;7.30;99.90;;;;;;5033872;28;20076;-78
2022/11/24 01:57:34;;;;;;;10.85;1.80;;;7.40;99.90;;;;;;5026991;28;20041;-75
2022/11/24 02:00:10;;;;;;;14.73;1.52;;;7.40;99.90;;;;;;5027564;28;20041;-77
2022/11/24 02:02:45;;;;;;;14.05;2.03;;;7.30;99.90;;;;;;5050533;28;20060;-78
2022/11/24 02:05:25;;;;;;;23.95;2.50;;;7.30;99.90;;;;;;5035713;28;20025;-79
2022/11/24 02:07:54;;;;;;;11.05;1.63;;;7.20;99.90;;;;;;5037807;28;20051;-79
2022/11/24 02:10:22;;;;;;;14.27;1.88;;;7.20;99.90;;;;;;5045964;28;20395;-78
2022/11/24 02:12:52;;;;;;;13.27;1.50;;;7.20;99.90;;;;;;5042319;28;20033;-79
2022/11/24 02:15:19;;;;;;;10.85;1.30;;;7.20;99.90;;;;;;5043800;28;20395;-79
2022/11/24 02:17:46;;;;;;;19.50;2.20;;;7.30;99.90;;;;;;5047097;28;20404;-78
2022/11/24 02:20:13;;;;;;;20.90;3.08;;;7.30;99.90;;;;;;5044371;28;20025;-77
2022/11/24 02:22:52;;;;;;;15.82;2.25;;;7.30;99.90;;;;;;5049261;28;20033;-79
2022/11/24 02:26:03;;;;;;;15.23;2.17;;;7.30;99.90;;;;;;5047200;28;20039;-78
2022/11/24 02:28:30;;;;;;;18.10;1.88;;;7.30;99.90;;;;;;5021783;28;20491;-78
2022/11/24 02:30:58;;;;;;;18.38;2.45;;;7.30;99.90;;;;;;5043891;28;20045;-77
2022/11/24 02:33:26;;;;;;;15.05;1.60;;;7.40;99.90;;;;;;5016262;28;20048;-79
2022/11/24 02:35:52;;;;;;;18.73;2.10;;;7.40;99.90;;;;;;5045725;28;20400;-79
2022/11/24 02:38:32;;;;;;;15.30;1.90;;;7.50;99.90;;;;;;5028077;28;20040;-79
2022/11/24 02:41:02;;;;;;;14.85;1.60;;;7.50;99.90;;;;;;5042978;28;20037;-79
2022/11/24 02:43:33;;;;;;;16.27;1.45;;;7.40;99.90;;;;;;5044077;28;20396;-80
2022/11/24 02:46:00;;;;;;;11.50;2.17;;;7.40;99.90;;;;;;5031967;28;20036;-79
2022/11/24 02:48:27;;;;;;;21.13;2.88;;;7.40;99.90;;;;;;5010549;28;20699;-79
2022/11/24 02:50:53;;;;;;;16.02;2.10;;;7.30;99.90;;;;;;5043733;28;20044;-77
2022/11/24 02:53:19;;;;;;;14.02;1.80;;;7.30;99.90;;;;;;5044348;28;20025;-80
2022/11/24 02:55:46;;;;;;;13.63;1.48;;;7.30;99.90;;;;;;5044290;28;20037;-80
2022/11/24 02:58:13;;;;;;;13.90;1.95;;;7.30;99.90;;;;;;5015310;28;20029;-78
2022/11/24 03:00:40;;;;;;;9.93;1.77;;;7.30;99.90;;;;;;5045753;28;20048;-76
2022/11/24 03:03:06;;;;;;;19.20;2.15;;;7.20;99.90;;;;;;5044110;28;20044;-79
2022/11/24 03:05:32;;;;;;;12.80;1.60;;;7.20;99.90;;;;;;5031786;28;20037;-79
2022/11/24 03:07:59;;;;;;;13.20;1.58;;;7.10;99.90;;;;;;5043472;28;20037;-77
2022/11/24 03:10:25;;;;;;;19.10;3.17;;;7.10;99.90;;;;;;5044439;28;20349;-79
2022/11/24 03:12:52;;;;;;;17.50;1.90;;;7.00;99.90;;;;;;5013703;28;20037;-79
2022/11/24 03:15:19;;;;;;;12.70;2.15;;;7.00;99.90;;;;;;5029596;28;20047;-78
2022/11/24 03:17:45;;;;;;;16.35;1.40;;;7.00;99.90;;;;;;5028039;28;20703;-79
2022/11/24 03:20:12;;;;;;;20.67;2.42;;;6.90;99.90;;;;;;5044257;28;20044;-79
2022/11/24 03:22:40;;;;;;;11.70;1.98;;;6.90;99.90;;;;;;5045456;28;20476;-79
2022/11/24 03:25:07;;;;;;;9.68;1.30;;;6.90;99.90;;;;;;5030792;28;20499;-80
2022/11/24 03:27:33;;;;;;;16.30;1.98;;;6.90;99.90;;;;;;5041961;28;20064;-80
2022/11/24 03:29:59;;;;;;;16.40;1.85;;;6.90;99.90;;;;;;5046391;28;20418;-79
2022/11/24 03:32:26;;;;;;;10.20;1.52;;;6.90;99.90;;;;;;5029968;28;20037;-80
2022/11/24 03:34:52;;;;;;;14.05;1.75;;;6.90;99.90;;;;;;5031589;28;20037;-79
2022/11/24 03:37:19;;;;;;;11.00;1.90;;;6.90;99.90;;;;;;5043297;28;20044;-80
2022/11/24 03:39:45;;;;;;;19.88;2.22;;;6.90;99.90;;;;;;5044270;28;20044;-78
2022/11/24 03:42:11;;;;;;;21.70;2.15;;;6.90;99.90;;;;;;5030574;28;20037;-76
2022/11/24 03:44:38;;;;;;;26.33;2.42;;;7.00;99.90;;;;;;5015987;28;20496;-80
2022/11/24 03:47:04;;;;;;;24.08;2.95;;;7.00;99.90;;;;;;5040360;28;20017;-75
2022/11/24 03:49:31;;;;;;;18.92;2.13;;;7.10;99.90;;;;;;5028716;28;20059;-79
2022/11/24 03:51:57;;;;;;;13.70;1.65;;;7.20;99.90;;;;;;5044497;28;20057;-79
2022/11/24 03:54:23;;;;;;;15.43;2.22;;;7.20;99.90;;;;;;5045679;28;20025;-80
2022/11/24 03:56:50;;;;;;;16.33;1.77;;;7.20;99.90;;;;;;5041435;28;20041;-79
2022/11/24 03:59:18;;;;;;;16.60;2.60;;;7.30;99.90;;;;;;5038416;28;20155;-79
2022/11/24 04:01:44;;;;;;;23.30;3.20;;;7.30;99.90;;;;;;5041476;28;20067;-81
2022/11/24 04:04:11;;;;;;;25.65;2.67;;;7.20;99.90;;;;;;5045999;28;20028;-80
2022/11/24 04:06:38;;;;;;;15.23;1.52;;;7.20;99.90;;;;;;5042128;28;20033;-81
2022/11/24 04:09:06;;;;;;;25.45;3.22;;;7.20;99.90;;;;;;5038654;28;20263;-80
2022/11/24 04:14:18;;;;;;;16.38;2.97;;;7.10;99.90;;;;;;5045203;28;20036;-78
2022/11/24 04:16:44;;;;;;;24.35;2.65;;;7.10;99.90;;;;;;5044892;28;20049;-77
2022/11/24 04:19:10;;;;;;;17.55;2.03;;;7.10;99.90;;;;;;5042682;28;20029;-78
2022/11/24 04:21:37;;;;;;;18.85;2.28;;;7.10;99.90;;;;;;5042502;28;20033;-79
2022/11/24 04:24:03;;;;;;;20.38;2.65;;;7.10;99.90;;;;;;5046892;28;20060;-81
2022/11/24 04:26:29;;;;;;;29.92;5.80;;;7.20;99.90;;;;;;5027904;28;20408;-80
2022/11/24 04:28:56;;;;;;;30.90;3.00;;;7.20;99.90;;;;;;5025951;28;20403;-80
2022/11/24 04:31:22;;;;;;;16.27;2.08;;;7.30;99.90;;;;;;5045877;28;20056;-80
2022/11/24 04:33:48;;;;;;;14.23;2.05;;;7.30;99.90;;;;;;5030020;28;20044;-79
2022/11/24 04:36:14;;;;;;;13.90;2.08;;;7.20;99.90;;;;;;5041537;28;20029;-78
2022/11/24 04:38:41;;;;;;;16.42;2.47;;;7.20;99.90;;;;;;5039297;28;21551;-80
2022/11/24 04:41:08;;;;;;;17.60;2.20;;;7.20;99.90;;;;;;5044115;28;20037;-79
2022/11/24 04:43:34;;;;;;;19.55;2.35;;;7.10;99.90;;;;;;5044363;28;20037;-78
2022/11/24 04:46:01;;;;;;;12.02;2.28;;;7.10;99.90;;;;;;5026872;28;20029;-79
2022/11/24 04:48:28;;;;;;;20.80;2.40;;;7.10;99.90;;;;;;5040122;28;20047;-78
2022/11/24 04:50:54;;;;;;;16.45;2.70;;;7.10;99.90;;;;;;5040653;28;20400;-80
2022/11/24 04:53:21;;;;;;;22.55;3.53;;;7.10;99.90;;;;;;5028150;28;20045;-79
2022/11/24 04:55:47;;;;;;;16.27;2.47;;;7.10;99.90;;;;;;5042231;28;20040;-77
2022/11/24 04:58:13;;;;;;;24.13;2.85;;;7.20;99.90;;;;;;5040263;28;20044;-79
2022/11/24 05:00:40;;;;;;;17.15;2.30;;;7.30;99.90;;;;;;5045012;28;20037;-78
2022/11/24 05:03:06;;;;;;;23.02;2.75;;;7.30;99.90;;;;;;5016128;28;20047;-79
2022/11/24 05:05:32;;;;;;;18.73;2.75;;;7.30;99.90;;;;;;5017444;28;20029;-80
2022/11/24 05:07:59;;;;;;;20.58;2.75;;;7.40;99.90;;;;;;5040222;28;20036;-80
2022/11/24 05:10:35;;;;;;;19.95;2.60;;;7.40;99.90;;;;;;5039250;28;20272;-80
2022/11/24 05:13:07;;;;;;;11.48;1.95;;;7.40;99.90;;;;;;5039450;28;20047;-82
2022/11/24 05:15:36;;;;;;;22.45;4.15;;;7.50;99.90;;;;;;5038672;28;20602;-80
2022/11/24 05:18:05;;;;;;;16.85;3.80;;;7.50;99.90;;;;;;5037789;28;20025;-80
2022/11/24 05:20:31;;;;;;;24.40;3.45;;;7.50;99.90;;;;;;5027732;28;20480;-82
2022/11/24 05:23:06;;;;;;;18.13;2.78;;;7.60;99.90;;;;;;5010815;28;20064;-82
2022/11/24 05:25:33;;;;;;;23.70;3.90;;;7.60;99.90;;;;;;5022624;28;20029;-80
2022/11/24 05:28:04;;;;;;;21.20;5.45;;;7.70;99.90;;;;;;5039838;28;20144;-82
2022/11/24 05:30:31;;;;;;;16.20;3.53;;;7.70;99.90;;;;;;5039072;28;20042;-78
2022/11/24 05:32:57;;;;;;;18.40;1.92;;;7.80;99.90;;;;;;5038055;28;20040;-81
2022/11/24 05:35:24;;;;;;;11.98;2.10;;;7.80;99.90;;;;;;5038234;28;20033;-79
2022/11/24 05:37:50;;;;;;;12.90;1.85;;;7.90;99.90;;;;;;5037092;28;20056;-79
2022/11/24 05:40:17;;;;;;;12.50;1.60;;;7.90;99.90;;;;;;5037800;28;20033;-80
2022/11/24 05:42:43;;;;;;;11.10;1.55;;;7.90;99.90;;;;;;5022083;28;20029;-80
2022/11/24 05:45:11;;;;;;;10.25;1.50;;;7.90;99.90;;;;;;5037452;28;20040;-79
2022/11/24 05:47:38;;;;;;;10.13;0.90;;;7.90;99.90;;;;;;5038787;28;20036;-79
2022/11/24 05:50:06;;;;;;;8.93;1.60;;;7.90;99.90;;;;;;5038413;28;20030;-78
2022/11/24 05:52:32;;;;;;;12.60;1.10;;;7.90;99.90;;;;;;5022157;28;20049;-80
2022/11/24 05:54:58;;;;;;;7.20;1.13;;;7.90;99.90;;;;;;5040793;28;20040;-78
2022/11/24 05:57:25;;;;;;;10.77;1.75;;;7.90;99.90;;;;;;5035758;28;20041;-79
2022/11/24 05:59:51;;;;;;;9.23;1.58;;;7.90;99.90;;;;;;5038273;28;20416;-80
2022/11/24 06:02:17;;;;;;;9.93;1.33;;;7.90;99.90;;;;;;5025764;28;20389;-81
2022/11/24 06:04:44;;;;;;;12.73;2.05;;;7.90;99.90;;;;;;5038998;28;20374;-80
2022/11/24 06:07:11;;;;;;;6.35;1.48;;;7.90;99.90;;;;;;5025682;28;20084;-79
2022/11/24 06:09:38;;;;;;;8.25;1.25;;;7.90;99.90;;;;;;5039982;28;20028;-81
2022/11/24 06:12:09;;;;;;;7.05;1.00;;;7.90;99.90;;;;;;5022230;28;20029;-80
2022/11/24 06:14:36;;;;;;;12.20;2.85;;;7.90;99.90;;;;;;5025703;28;20757;-78
2022/11/24 06:17:03;;;;;;;10.23;1.27;;;7.90;99.90;;;;;;5008649;28;20045;-76
2022/11/24 06:19:29;;;;;;;7.13;1.35;;;7.90;99.90;;;;;;5020144;28;20040;-78
2022/11/24 06:21:56;;;;;;;5.82;1.10;;;7.90;99.90;;;;;;5040958;28;20473;-80
2022/11/24 06:24:22;;;;;;;4.40;1.17;;;7.90;99.90;;;;;;5038870;28;20060;-77
2022/11/24 06:26:49;;;;;;;6.57;0.98;;;7.90;99.90;;;;;;5024444;28;20524;-75
2022/11/24 06:29:15;;;;;;;7.55;1.40;;;7.90;99.90;;;;;;5052402;28;20029;-76
2022/11/24 06:31:41;;;;;;;7.82;1.10;;;8.00;99.90;;;;;;5039886;28;20036;-76
2022/11/24 06:34:10;;;;;;;7.32;1.33;;;8.00;99.90;;;;;;5017865;28;20033;-75
2022/11/24 06:36:37;;;;;;;8.38;1.23;;;8.00;99.90;;;;;;5027144;28;20033;-77
2022/11/24 06:39:04;;;;;;;6.38;1.40;;;8.00;99.90;;;;;;5024024;28;20033;-77
2022/11/24 06:41:31;;;;;;;5.22;1.10;;;8.00;99.90;;;;;;5038694;28;20033;-75
2022/11/24 06:43:57;;;;;;;4.68;1.15;;;8.00;99.90;;;;;;5026983;28;20036;-77
2022/11/24 06:46:23;;;;;;;7.25;1.00;;;8.00;99.90;;;;;;5037846;28;20029;-80
2022/11/24 06:48:51;;;;;;;8.18;1.52;;;8.00;99.90;;;;;;5036554;28;20109;-78
2022/11/24 06:51:18;;;;;;;7.18;1.50;;;8.00;99.90;;;;;;5026003;28;20408;-81
2022/11/24 06:53:45;;;;;;;5.68;1.40;;;7.90;99.90;;;;;;5013733;28;20033;-80
2022/11/24 06:56:13;;;;;;;6.75;1.67;;;7.90;99.90;;;;;;5043768;28;20037;-80
2022/11/24 06:58:45;;;;;;;7.57;2.05;;;7.90;99.90;;;;;;5026675;28;20044;-79
2022/11/24 07:01:20;;;;;;;6.55;1.50;;;7.90;99.90;;;;;;5028834;28;20423;-80
2022/11/24 07:03:47;;;;;;;7.38;1.50;;;7.90;99.90;;;;;;5027399;28;20049;-79
2022/11/24 07:06:14;;;;;;;6.25;1.92;;;7.90;99.90;;;;;;5043642;28;20033;-81
2022/11/24 07:08:41;;;;;;;4.70;1.95;;;7.80;99.90;;;;;;5023719;28;20044;-80
2022/11/24 07:11:10;;;;;;;7.07;1.98;;;7.80;99.90;;;;;;5044201;28;20456;-80
2022/11/24 07:13:36;;;;;;;8.13;2.17;;;7.80;99.90;;;;;;5028681;28;20143;-79
2022/11/24 07:16:18;;;;;;;5.63;1.92;;;7.80;99.90;;;;;;5012308;28;20041;-79
2022/11/24 07:18:46;;;;;;;2.97;1.15;;;7.80;99.90;;;;;;5028755;28;20029;-81
2022/11/24 07:21:12;;;;;;;6.55;2.78;;;7.80;99.90;;;;;;5031324;28;20051;-75
2022/11/24 07:23:39;;;;;;;7.18;3.88;;;7.80;99.90;;;;;;5044070;28;20037;-79
2022/11/24 07:26:07;;;;;;;7.32;4.78;;;7.80;99.90;;;;;;5042969;28;20028;-78
2022/11/24 07:28:33;;;;;;;6.22;4.18;;;7.80;99.90;;;;;;5011834;28;20028;-79
2022/11/24 07:31:08;;;;;;;9.00;4.28;;;7.80;99.90;;;;;;5048440;28;20044;-78
2022/11/24 07:33:35;;;;;;;6.35;4.65;;;7.90;99.90;;;;;;5047995;28;20047;-80
2022/11/24 07:36:02;;;;;;;6.43;4.75;;;7.90;99.90;;;;;;5030538;28;20427;-79
2022/11/24 07:38:30;;;;;;;8.48;6.00;;;7.90;99.90;;;;;;5027726;28;20052;-78
2022/11/24 07:41:08;;;;;;;10.25;5.55;;;7.90;99.90;;;;;;5030654;28;20495;-80
2022/11/24 07:43:36;;;;;;;10.73;5.03;;;7.90;99.90;;;;;;5030229;28;20088;-77
2022/11/24 07:46:03;;;;;;;8.80;5.72;;;7.90;99.90;;;;;;5028346;28;20045;-79
2022/11/24 07:48:30;;;;;;;8.27;6.18;;;7.90;99.90;;;;;;5039290;28;20044;-75
2022/11/24 07:51:04;;;;;;;12.13;6.53;;;7.90;99.90;;;;;;5044209;28;20037;-79
2022/11/24 07:53:32;;;;;;;11.68;6.10;;;7.90;99.90;;;;;;5026923;28;20033;-80
2022/11/24 07:56:00;;;;;;;10.45;4.75;;;7.90;99.90;;;;;;5041210;28;20030;-78
2022/11/24 07:58:31;;;;;;;7.18;4.28;;;7.90;99.90;;;;;;5040556;28;20037;-79
2022/11/24 08:00:57;;;;;;;7.97;4.53;;;8.00;99.90;;;;;;5029496;28;20048;-80
2022/11/24 08:03:24;;;;;;;9.73;5.97;;;7.90;99.90;;;;;;5040175;28;20057;-81
2022/11/24 08:05:58;;;;;;;12.63;7.95;;;7.90;99.90;;;;;;5040331;28;20045;-82
2022/11/24 08:08:25;;;;;;;11.63;6.68;;;7.90;99.90;;;;;;5025415;28;20037;-76
2022/11/24 08:10:51;;;;;;;10.30;6.88;;;8.00;99.90;;;;;;5036871;28;20033;-77
2022/11/24 08:13:18;;;;;;;10.55;6.50;;;8.00;99.90;;;;;;5043422;28;20423;-78
2022/11/24 08:15:45;;;;;;;13.20;7.18;;;8.00;99.90;;;;;;5029287;28;20563;-77
2022/11/24 08:18:11;;;;;;;7.93;6.00;;;7.90;99.90;;;;;;5042760;28;20037;-76
2022/11/24 08:20:37;;;;;;;12.02;7.65;;;7.90;99.90;;;;;;5011976;28;20044;-80
2022/11/24 08:23:04;;;;;;;13.95;8.57;;;7.90;99.90;;;;;;5039375;28;20029;-80
2022/11/24 08:25:31;;;;;;;23.75;11.02;;;8.00;99.90;;;;;;5026501;28;20037;-80
2022/11/24 08:27:59;;;;;;;20.42;11.27;;;8.00;99.90;;;;;;5039067;28;20040;-76
2022/11/24 08:30:25;;;;;;;13.27;8.60;;;7.90;99.90;;;;;;5035448;28;20392;-80
2022/11/24 08:32:52;;;;;;;15.63;9.48;;;8.00;99.90;;;;;;5035935;28;20045;-77
2022/11/24 08:35:18;;;;;;;14.05;8.05;;;8.00;99.90;;;;;;5027748;28;20037;-77
2022/11/24 08:37:45;;;;;;;11.93;7.82;;;8.10;99.90;;;;;;5039676;28;20037;-78
2022/11/24 08:40:12;;;;;;;11.65;7.18;;;8.20;99.90;;;;;;5046954;28;20048;-80
2022/11/24 08:42:38;;;;;;;12.80;7.70;;;8.30;99.90;;;;;;5045742;28;20029;-79
2022/11/24 08:45:05;;;;;;;14.07;7.90;;;8.40;99.90;;;;;;5029110;28;20033;-81
2022/11/24 08:47:31;;;;;;;15.85;7.97;;;8.50;99.90;;;;;;5026745;28;20044;-77
2022/11/24 08:49:57;;;;;;;16.40;8.80;;;8.50;99.90;;;;;;5045213;28;20480;-78
2022/11/24 08:52:24;;;;;;;10.20;6.63;;;8.50;99.90;;;;;;5029529;28;20495;-78
2022/11/24 08:54:50;;;;;;;19.33;8.00;;;8.50;99.90;;;;;;5011654;28;20052;-77
2022/11/24 08:57:16;;;;;;;13.02;6.78;;;8.50;99.90;;;;;;5025267;28;20026;-77
2022/11/24 08:59:44;;;;;;;16.73;5.80;;;8.50;99.90;;;;;;5045958;28;20040;-79
2022/11/24 09:02:12;;;;;;;9.60;5.07;;;8.50;99.90;;;;;;5046946;28;20049;-80
2022/11/24 09:04:38;;;;;;;10.18;5.40;;;8.50;99.90;;;;;;5029019;28;20037;-77
2022/11/24 09:07:05;;;;;;;14.02;4.60;;;8.50;99.90;;;;;;5010897;28;20040;-77
2022/11/24 09:09:31;;;;;;;13.55;4.63;;;8.50;99.90;;;;;;5040087;28;20036;-78
2022/11/24 09:11:57;;;;;;;12.15;3.90;;;8.50;99.90;;;;;;5041105;28;20044;-81
2022/11/24 09:14:24;;;;;;;15.07;5.95;;;8.50;99.90;;;;;;5027473;28;20553;-79
2022/11/24 09:16:50;;;;;;;9.75;4.57;;;8.40;99.90;;;;;;5038656;28;20539;-79
2022/11/24 09:19:16;;;;;;;12.50;4.80;;;8.40;99.90;;;;;;5039710;28;20503;-79
2022/11/24 09:21:42;;;;;;;13.48;5.07;;;8.40;99.90;;;;;;5038978;28;20037;-79
2022/11/24 09:24:09;;;;;;;12.70;5.18;;;8.30;99.90;;;;;;5038354;28;20518;-79
2022/11/24 09:26:37;;;;;;;7.70;3.35;;;8.30;99.90;;;;;;5009591;28;20029;-77
2022/11/24 09:29:05;;;;;;;16.63;5.28;;;8.30;99.90;;;;;;5037736;28;20033;-78
2022/11/24 09:31:33;;;;;;;15.60;5.68;;;8.40;99.90;;;;;;5039647;28;20032;-78
2022/11/24 09:34:01;;;;;;;12.10;4.57;;;8.50;99.90;;;;;;5039856;28;20032;-78
2022/11/24 09:36:28;;;;;;;15.25;4.22;;;8.60;99.90;;;;;;5052439;28;20037;-79
2022/11/24 09:38:54;;;;;;;14.57;5.75;;;8.70;99.90;;;;;;5038691;28;20077;-77
2022/11/24 09:41:53;;;;;;;11.65;4.35;;;8.70;99.90;;;;;;5024909;28;20033;-80
2022/11/24 09:44:47;;;;;;;12.35;4.57;;;8.80;99.90;;;;;;5009530;28;20314;-77
2022/11/24 09:47:37;;;;;;;13.23;6.07;;;8.80;99.90;;;;;;5024015;28;20052;-78
2022/11/24 09:50:24;;;;;;;9.98;3.88;;;8.90;99.90;;;;;;5019442;28;20730;-79
2022/11/24 09:52:50;;;;;;;14.27;4.63;;;9.00;99.90;;;;;;5039381;28;20033;-77
2022/11/24 09:55:30;;;;;;;10.90;3.13;;;9.00;99.90;;;;;;5020723;28;20045;-79
2022/11/24 09:58:17;;;;;;;11.43;3.45;;;9.20;99.90;;;;;;5023208;28;20451;-79
2022/11/24 10:00:45;;;;;;;9.50;2.90;;;9.50;99.90;;;;;;5024665;28;20029;-77
2022/11/24 10:03:28;;;;;;;11.10;2.65;;;9.70;99.90;;;;;;5023499;28;20056;-77
2022/11/24 10:05:54;;;;;;;11.07;3.35;;;10.00;99.90;;;;;;5041302;28;20033;-79
2022/11/24 10:08:46;;;;;;;9.02;2.08;;;10.30;99.90;;;;;;5028209;28;20041;-78
2022/11/24 10:11:15;;;;;;;5.80;1.08;;;10.50;99.90;;;;;;5048960;28;20511;-78
2022/11/24 10:14:06;;;;;;;5.47;1.20;;;10.80;99.90;;;;;;5043753;28;20052;-75
2022/11/24 10:16:42;;;;;;;6.88;1.70;;;10.90;99.90;;;;;;5029067;28;20029;-77
2022/11/24 10:19:36;;;;;;;8.20;1.40;;;11.00;99.90;;;;;;5007973;28;20035;-77
2022/11/24 10:22:48;;;;;;;17.55;3.03;;;11.10;99.90;;;;;;5030873;28;20409;-76
2022/11/24 10:25:24;;;;;;;10.52;2.45;;;11.10;99.90;;;;;;5036848;28;20660;-74
2022/11/24 10:28:03;;;;;;;10.77;2.28;;;11.10;99.90;;;;;;5041548;28;20033;-76
2022/11/24 10:30:30;;;;;;;8.68;2.05;;;11.10;99.90;;;;;;5032362;28;20369;-79
2022/11/24 10:33:07;;;;;;;9.45;3.70;;;11.00;99.90;;;;;;5028560;28;20029;-79
2022/11/24 10:35:46;;;;;;;11.77;4.40;;;10.90;99.90;;;;;;5042549;28;20045;-79
2022/11/24 10:38:37;;;;;;;12.60;3.60;;;10.70;99.90;;;;;;5021481;28;20037;-78
2022/11/24 10:41:15;;;;;;;13.18;2.25;;;10.60;99.90;;;;;;5040665;28;20017;-78
2022/11/24 10:43:42;;;;;;;8.25;1.25;;;10.40;99.90;;;;;;5040323;28;20037;-78
2022/11/24 10:46:22;;;;;;;7.15;1.05;;;10.20;99.90;;;;;;5030831;28;20037;-79
2022/11/24 10:49:02;;;;;;;15.40;2.85;;;10.10;99.90;;;;;;5036230;28;20405;-79
2022/11/24 10:51:37;;;;;;;19.15;3.28;;;10.00;99.90;;;;;;5041782;28;20506;-78
2022/11/24 10:54:20;;;;;;;22.98;2.92;;;9.90;99.90;;;;;;5044215;28;20037;-79
2022/11/24 10:56:49;;;;;;;12.75;2.17;;;9.90;99.90;;;;;;5041635;28;20482;-79
2022/11/24 10:59:33;;;;;;;12.48;1.58;;;9.90;99.90;;;;;;5041105;28;20891;-79
2022/11/24 11:01:59;;;;;;;8.82;2.38;;;9.90;99.90;;;;;;5041035;28;21664;-80
2022/11/24 11:04:31;;;;;;;11.30;1.80;;;9.90;99.90;;;;;;5028263;28;20033;-79
2022/11/24 11:07:27;;;;;;;15.55;2.60;;;9.80;99.90;;;;;;5042065;28;20024;-79
2022/11/24 11:10:20;;;;;;;19.85;2.67;;;9.90;99.90;;;;;;5030259;28;20052;-80
2022/11/24 11:12:48;;;;;;;11.55;1.65;;;9.90;99.90;;;;;;5028524;28;20041;-80
2022/11/24 11:15:22;;;;;;;11.88;1.98;;;9.80;99.90;;;;;;5029454;28;20048;-80
2022/11/24 11:17:51;;;;;;;11.32;2.05;;;9.80;99.90;;;;;;5034154;28;20047;-77
2022/11/24 11:20:31;;;;;;;11.07;1.80;;;9.80;99.90;;;;;;5027007;28;20041;-77
2022/11/24 11:23:02;;;;;;;13.73;2.60;;;9.80;99.90;;;;;;5010646;28;20025;-80
2022/11/24 11:25:32;;;;;;;15.88;3.03;;;9.80;99.90;;;;;;5028132;28;20048;-80
2022/11/24 11:28:27;;;;;;;8.90;2.38;;;9.80;99.90;;;;;;5035172;28;20033;-79
2022/11/24 11:31:04;;;;;;;14.23;1.88;;;9.80;99.90;;;;;;5026134;28;20056;-80
2022/11/24 11:33:32;;;;;;;16.17;2.08;;;9.80;99.90;;;;;;5027281;28;20033;-79
2022/11/24 11:36:05;;;;;;;15.27;2.05;;;9.90;99.90;;;;;;5011308;28;20040;-81
2022/11/24 11:38:36;;;;;;;15.27;2.95;;;9.90;99.90;;;;;;5039483;28;20439;-79
2022/11/24 11:41:08;;;;;;;17.98;2.45;;;9.90;99.90;;;;;;5027668;28;20037;-81
2022/11/24 11:43:39;;;;;;;13.77;2.17;;;9.90;99.90;;;;;;5041207;28;20029;-76
2022/11/24 11:46:10;;;;;;;17.50;2.20;;;9.90;99.90;;;;;;5041276;28;20025;-78
2022/11/24 11:48:42;;;;;;;16.83;1.92;;;9.90;99.90;;;;;;5005441;28;20404;-77
2022/11/24 11:51:27;;;;;;;15.77;2.78;;;9.90;99.90;;;;;;5042348;28;20033;-81
2022/11/24 11:54:29;;;;;;;14.18;2.40;;;9.90;99.90;;;;;;5039442;28;20037;-79
2022/11/24 11:57:10;;;;;;;11.35;1.83;;;9.90;99.90;;;;;;5041870;28;20028;-83
2022/11/24 12:00:17;;;;;;;27.23;4.68;;;9.90;99.90;;;;;;5037989;28;20068;-78
2022/11/24 12:03:18;;;;;;;20.30;3.53;;;9.90;99.90;;;;;;5040474;28;20053;-79
2022/11/24 12:05:56;;;;;;;14.93;3.08;;;9.90;99.90;;;;;;5040632;28;20032;-79
2022/11/24 12:08:43;;;;;;;17.48;5.72;;;9.90;99.90;;;;;;5008223;28;20044;-78
2022/11/24 12:11:34;;;;;;;12.18;2.88;;;9.90;99.90;;;;;;5040677;28;20518;-82
2022/11/24 12:14:21;;;;;;;12.40;1.80;;;9.90;99.90;;;;;;5042736;28;20488;-82
2022/11/24 12:16:47;;;;;;;16.35;2.80;;;9.90;99.90;;;;;;5008919;28;20045;-81
2022/11/24 12:19:32;;;;;;;13.85;2.22;;;9.90;99.90;;;;;;5021916;28;20076;-81
2022/11/24 12:22:16;;;;;;;13.25;1.23;;;9.90;99.90;;;;;;5025332;28;20032;-81
2022/11/24 12:25:35;;;;;;;19.42;2.78;;;9.90;99.90;;;;;;5037112;28;20025;-79
2022/11/24 12:28:28;;;;;;;9.85;1.70;;;9.90;99.90;;;;;;5008848;28;20041;-81
2022/11/24 12:31:13;;;;;;;;;;;9.90;99.90;;;;;;5024362;28;20083;-82
2022/11/24 12:34:15;;;;;;;16.33;2.40;;;9.90;99.90;;;;;;5040329;28;19909;-83
2022/11/24 12:37:06;;;;;;;13.57;3.58;;;9.90;99.90;;;;;;5038249;28;20036;-83
2022/11/24 12:39:40;;;;;;;17.58;3.88;;;9.90;99.90;;;;;;5019645;28;20385;-81
2022/11/24 12:42:26;;;;;;;17.65;5.03;;;10.00;99.90;;;;;;5011747;28;20049;-80
2022/11/24 12:45:07;;;;;;;23.30;6.43;;;10.10;99.90;;;;;;5041501;28;20044;-84
2022/11/24 12:48:11;;;;;;;22.00;3.58;;;10.10;99.90;;;;;;5036459;28;20041;-78
2022/11/24 12:50:41;;;;;;;20.02;3.85;;;10.20;99.90;;;;;;5039547;28;20025;-81
2022/11/24 12:53:13;;;;;;;17.83;2.65;;;10.10;99.90;;;;;;5023379;28;20395;-83
2022/11/24 12:55:41;;;;;;;24.67;5.10;;;10.10;99.90;;;;;;5025834;28;20037;-80
2022/11/24 12:58:28;;;;;;;14.50;2.95;;;10.10;99.90;;;;;;5034767;28;20687;-83
2022/11/24 13:01:20;;;;;;;17.65;3.33;;;10.10;99.90;;;;;;5055650;28;20055;-79
2022/11/24 13:04:11;;;;;;;17.30;3.20;;;10.20;99.90;;;;;;5004689;28;20049;-81
2022/11/24 13:06:53;;;;;;;21.17;2.88;;;10.20;99.90;;;;;;5009568;28;20025;-81
2022/11/24 13:09:19;;;;;;;17.75;3.13;;;10.20;99.90;;;;;;5018424;28;20407;-82
2022/11/24 13:11:53;;;;;;;21.13;3.05;;;10.10;99.90;;;;;;4987667;28;20041;-79